createdAt,value
2018-11-04T00:01:52.857Z,31.37
2018-11-04T00:04:21.281Z,31.90
2018-11-04T00:06:49.765Z,32.87
2018-11-04T00:09:18.733Z,30.97
2018-11-04T00:11:48.114Z,32.17
2018-11-04T00:14:16.553Z,32.57
2018-11-04T00:16:45.042Z,32.47
2018-11-04T00:19:13.474Z,27.63
2018-11-04T00:21:41.947Z,29.40
2018-11-04T00:24:10.497Z,30.43
2018-11-04T00:26:39.059Z,30.33
2018-11-04T00:29:07.517Z,31.00
2018-11-04T00:31:35.944Z,31.47
2018-11-04T00:34:04.680Z,32.47
2018-11-04T00:36:33.116Z,30.87
2018-11-04T00:39:01.803Z,30.67
2018-11-04T00:41:30.226Z,31.67
2018-11-04T00:43:59.174Z,30.13
2018-11-04T00:46:27.607Z,30.90
2018-11-04T00:48:56.090Z,31.50
2018-11-04T00:51:24.549Z,30.13
2018-11-04T00:53:53.089Z,30.17
2018-11-04T00:56:21.522Z,29.50
2018-11-04T00:58:49.997Z,30.80
2018-11-04T01:01:18.430Z,30.07
2018-11-04T01:03:46.916Z,31.23
2018-11-04T01:06:15.348Z,29.53
2018-11-04T01:08:43.807Z,31.30
2018-11-04T01:11:12.806Z,30.27
2018-11-04T01:13:41.291Z,31.33
2018-11-04T01:16:09.714Z,31.03
2018-11-04T01:18:38.165Z,30.07
2018-11-04T01:21:06.641Z,30.27
2018-11-04T01:23:35.874Z,32.50
2018-11-04T01:26:04.525Z,30.43
2018-11-04T01:28:32.948Z,32.07
2018-11-04T01:31:01.417Z,31.77
2018-11-04T01:33:30.651Z,31.27
2018-11-04T01:35:59.114Z,32.07
2018-11-04T01:38:27.566Z,31.90
2018-11-04T01:40:56.727Z,31.07
2018-11-04T01:43:25.142Z,31.07
2018-11-04T01:45:53.666Z,28.57
2018-11-04T01:48:22.105Z,30.37
2018-11-04T01:50:51.257Z,29.57
2018-11-04T01:53:19.706Z,29.60
2018-11-04T01:55:48.182Z,28.80
2018-11-04T01:58:17.235Z,29.77
2018-11-04T02:00:45.693Z,29.10
2018-11-04T02:03:14.116Z,31.90
2018-11-04T02:05:43.211Z,31.30
2018-11-04T02:08:11.689Z,30.70
2018-11-04T02:10:40.129Z,28.40
2018-11-04T02:13:08.574Z,28.97
2018-11-04T02:15:37.014Z,28.80
2018-11-04T02:18:05.829Z,28.77
2018-11-04T02:20:34.277Z,29.83
2018-11-04T02:26:33.722Z,28.33
2018-11-04T02:29:02.167Z,29.20
2018-11-04T02:31:30.630Z,27.67
2018-11-04T02:33:59.107Z,28.90
2018-11-04T02:36:27.591Z,31.70
2018-11-04T02:38:56.071Z,28.90
2018-11-04T02:41:25.277Z,30.10
2018-11-04T02:43:53.926Z,31.50
2018-11-04T02:46:22.349Z,29.67
2018-11-04T02:48:50.789Z,29.70
2018-11-04T02:51:19.227Z,30.73
2018-11-04T02:53:47.693Z,30.27
2018-11-04T02:56:16.122Z,30.33
2018-11-04T02:58:44.564Z,31.33
2018-11-04T03:01:13.030Z,30.23
2018-11-04T03:03:41.506Z,29.53
2018-11-04T03:06:09.964Z,29.87
2018-11-04T03:08:38.769Z,30.20
2018-11-04T03:11:07.230Z,29.70
2018-11-04T03:13:35.658Z,28.57
2018-11-04T03:16:04.150Z,30.27
2018-11-04T03:18:32.574Z,29.10
2018-11-04T03:21:01.047Z,31.03
2018-11-04T03:23:30.110Z,30.03
2018-11-04T03:25:59.139Z,29.90
2018-11-04T03:28:27.565Z,30.07
2018-11-04T03:30:56.054Z,28.93
2018-11-04T03:33:24.487Z,31.20
2018-11-04T03:35:52.974Z,32.83
2018-11-04T03:38:22.101Z,30.07
2018-11-04T03:40:50.553Z,31.57
2018-11-04T03:43:19.755Z,31.00
2018-11-04T03:45:48.217Z,27.60
2018-11-04T03:48:16.674Z,27.83
2018-11-04T03:50:45.150Z,26.97
2018-11-04T03:53:13.591Z,29.63
2018-11-04T03:55:42.069Z,26.90
2018-11-04T03:58:11.553Z,29.03
2018-11-04T04:00:40.500Z,27.97
2018-11-04T04:03:08.921Z,29.20
2018-11-04T04:05:37.387Z,26.63
2018-11-04T04:08:20.859Z,27.23
2018-11-04T04:11:03.557Z,34.95
2018-11-04T04:13:32.034Z,29.90
2018-11-04T04:16:00.478Z,28.80
2018-11-04T04:18:28.950Z,28.80
2018-11-04T04:21:03.056Z,31.00
2018-11-04T04:23:31.497Z,30.53
2018-11-04T04:25:59.930Z,29.30
2018-11-04T04:28:28.370Z,30.53
2018-11-04T04:30:56.810Z,30.17
2018-11-04T04:33:25.421Z,28.20
2018-11-04T04:35:54.586Z,28.40
2018-11-04T04:38:23.217Z,29.77
2018-11-04T04:40:51.653Z,28.63
2018-11-04T04:43:20.204Z,27.13
2018-11-04T04:45:48.642Z,30.63
2018-11-04T04:48:17.583Z,29.90
2018-11-04T04:50:46.110Z,30.43
2018-11-04T04:53:14.613Z,30.60
2018-11-04T04:55:43.082Z,30.70
2018-11-04T04:58:11.567Z,31.47
2018-11-04T05:00:40.991Z,31.10
2018-11-04T05:03:09.812Z,31.10
2018-11-04T05:05:38.271Z,31.03
2018-11-04T05:08:06.748Z,30.57
2018-11-04T05:10:35.925Z,29.47
2018-11-04T05:13:04.389Z,30.70
2018-11-04T05:15:32.871Z,30.70
2018-11-04T05:18:01.908Z,32.00
2018-11-04T05:20:30.361Z,32.40
2018-11-04T05:22:58.812Z,30.87
2018-11-04T05:25:27.304Z,32.30
2018-11-04T05:27:55.767Z,30.80
2018-11-04T05:33:07.043Z,31.80
2018-11-04T05:35:35.499Z,32.50
2018-11-04T05:38:03.943Z,30.53
2018-11-04T05:40:32.995Z,32.07
2018-11-04T05:43:01.450Z,31.10
2018-11-04T05:45:29.909Z,31.50
2018-11-04T05:47:58.341Z,32.13
2018-11-04T05:50:26.865Z,33.20
2018-11-04T05:52:55.440Z,31.50
2018-11-04T05:55:23.885Z,31.63
2018-11-04T05:57:52.341Z,33.30
2018-11-04T06:00:20.769Z,34.07
2018-11-04T06:02:49.241Z,34.50
2018-11-04T06:05:17.721Z,33.90
2018-11-04T06:07:46.192Z,34.90
2018-11-04T06:10:14.714Z,34.60
2018-11-04T06:12:43.174Z,34.43
2018-11-04T06:15:11.613Z,34.87
2018-11-04T06:17:40.105Z,35.73
2018-11-04T06:20:09.797Z,33.50
2018-11-04T06:22:38.234Z,34.70
2018-11-04T06:25:07.216Z,33.53
2018-11-04T06:27:35.702Z,32.83
2018-11-04T06:30:05.950Z,33.37
2018-11-04T06:32:37.366Z,33.27
2018-11-04T06:35:07.550Z,31.33
2018-11-04T06:37:36.157Z,32.53
2018-11-04T06:40:05.270Z,34.03
2018-11-04T06:42:33.713Z,32.77
2018-11-04T06:45:02.515Z,34.50
2018-11-04T06:47:31.102Z,36.07
2018-11-04T06:49:59.702Z,33.53
2018-11-04T06:52:28.155Z,35.27
2018-11-04T06:54:56.623Z,33.93
2018-11-04T06:57:25.061Z,33.93
2018-11-04T06:59:53.547Z,33.93
2018-11-04T07:02:22.185Z,33.50
2018-11-04T07:04:50.637Z,33.93
2018-11-04T07:07:19.055Z,35.17
2018-11-04T07:09:47.494Z,34.17
2018-11-04T07:12:16.022Z,34.17
2018-11-04T07:14:44.518Z,34.47
2018-11-04T07:17:12.950Z,34.20
2018-11-04T07:19:41.420Z,33.47
2018-11-04T07:22:09.836Z,35.27
2018-11-04T07:24:38.312Z,31.97
2018-11-04T07:27:07.084Z,33.53
2018-11-04T07:29:35.559Z,34.57
2018-11-04T07:32:04.100Z,34.27
2018-11-04T07:34:32.677Z,33.83
2018-11-04T07:37:01.682Z,36.17
2018-11-04T07:39:30.142Z,34.87
2018-11-04T07:41:58.617Z,33.30
2018-11-04T07:44:27.154Z,32.03
2018-11-04T07:46:55.728Z,32.50
2018-11-04T07:49:24.185Z,34.13
2018-11-04T07:51:52.653Z,32.00
2018-11-04T07:54:21.159Z,34.00
2018-11-04T07:56:49.670Z,32.63
2018-11-04T07:59:18.608Z,35.07
2018-11-04T08:01:47.079Z,33.33
2018-11-04T08:04:15.586Z,33.30
2018-11-04T08:06:44.181Z,34.13
2018-11-04T08:09:12.638Z,32.87
2018-11-04T08:11:41.119Z,33.30
2018-11-04T08:14:11.012Z,33.67
2018-11-04T08:16:39.506Z,33.43
2018-11-04T08:19:07.939Z,32.60
2018-11-04T08:21:36.389Z,32.83
2018-11-04T08:24:05.252Z,34.47
2018-11-04T08:26:33.718Z,34.67
2018-11-04T08:29:02.906Z,32.43
2018-11-04T08:31:31.334Z,32.70
2018-11-04T08:33:59.790Z,35.17
2018-11-04T08:36:28.262Z,34.50
2018-11-04T08:38:56.751Z,34.50
2018-11-04T08:41:25.189Z,34.17
2018-11-04T08:43:53.666Z,33.67
2018-11-04T08:46:22.252Z,36.03
2018-11-04T08:48:50.707Z,33.57
2018-11-04T08:51:19.163Z,33.77
2018-11-04T08:53:47.619Z,33.20
2018-11-04T08:56:16.061Z,33.93
2018-11-04T08:58:44.503Z,33.30
2018-11-04T09:01:12.934Z,33.07
2018-11-04T09:03:41.758Z,35.20
2018-11-04T09:06:10.197Z,33.87
2018-11-04T09:08:38.641Z,33.23
2018-11-04T09:11:07.108Z,31.97
2018-11-04T09:13:35.612Z,33.27
2018-11-04T09:16:04.051Z,34.47
2018-11-04T09:18:32.530Z,32.87
2018-11-04T09:21:00.964Z,33.63
2018-11-04T09:23:29.405Z,33.07
2018-11-04T09:25:59.702Z,33.77
2018-11-04T09:28:28.229Z,34.00
2018-11-04T09:30:56.690Z,33.13
2018-11-04T09:33:25.139Z,33.53
2018-11-04T09:35:53.766Z,34.87
2018-11-04T09:38:23.225Z,33.80
2018-11-04T09:40:52.409Z,34.23
2018-11-04T09:43:20.862Z,34.37
2018-11-04T09:45:49.326Z,33.47
2018-11-04T09:48:17.786Z,34.40
2018-11-04T09:50:46.250Z,32.83
2018-11-04T09:53:14.885Z,33.83
2018-11-04T09:55:43.325Z,32.33
2018-11-04T09:58:12.386Z,34.90
2018-11-04T10:00:40.834Z,33.90
2018-11-04T10:03:09.302Z,34.37
2018-11-04T10:05:37.753Z,35.80
2018-11-04T10:08:06.854Z,32.33
2018-11-04T10:10:35.489Z,32.27
2018-11-04T10:13:04.004Z,33.80
2018-11-04T10:15:32.457Z,32.63
2018-11-04T10:18:00.927Z,33.47
2018-11-04T10:20:29.686Z,33.70
2018-11-04T10:22:58.037Z,33.53
2018-11-04T10:25:26.491Z,33.27
2018-11-04T10:27:54.976Z,34.37
2018-11-04T10:30:23.586Z,33.90
2018-11-04T10:32:52.076Z,34.10
2018-11-04T10:35:21.374Z,34.53
2018-11-04T10:37:49.902Z,34.23
2018-11-04T10:40:18.333Z,32.33
2018-11-04T10:42:46.780Z,33.53
2018-11-04T10:45:15.209Z,32.93
2018-11-04T10:47:43.665Z,32.23
2018-11-04T10:50:13.100Z,32.90
2018-11-04T10:52:41.569Z,34.20
2018-11-04T10:55:10.681Z,34.10
2018-11-04T10:57:39.290Z,33.17
2018-11-04T11:00:14.687Z,33.37
2018-11-04T11:02:43.729Z,33.87
2018-11-04T11:05:12.202Z,33.67
2018-11-04T11:07:40.705Z,33.27
2018-11-04T11:10:09.957Z,33.73
2018-11-04T11:12:38.453Z,33.73
2018-11-04T11:15:08.261Z,34.13
2018-11-04T11:17:38.843Z,35.27
2018-11-04T11:20:08.371Z,36.77
2018-11-04T11:22:38.382Z,36.30
2018-11-04T11:25:07.422Z,33.67
2018-11-04T11:27:36.213Z,35.83
2018-11-04T11:30:04.957Z,33.80
2018-11-04T11:32:33.557Z,35.70
2018-11-04T11:35:02.018Z,35.97
2018-11-04T11:37:30.726Z,35.23
2018-11-04T11:39:59.320Z,35.87
2018-11-04T11:42:27.838Z,35.13
2018-11-04T11:44:56.393Z,36.43
2018-11-04T11:47:25.182Z,34.43
2018-11-04T11:49:53.657Z,34.83
2018-11-04T11:52:22.108Z,35.63
2018-11-04T11:54:51.041Z,35.83
2018-11-04T11:57:19.473Z,38.02
2018-11-04T11:59:47.947Z,34.63
2018-11-04T12:02:16.434Z,35.13
2018-11-04T12:04:45.027Z,34.07
2018-11-04T12:07:14.058Z,35.43
2018-11-04T12:09:42.534Z,36.37
2018-11-04T12:12:10.975Z,35.77
2018-11-04T12:14:39.410Z,33.43
2018-11-04T12:17:07.842Z,36.00
2018-11-04T12:19:36.863Z,36.23
2018-11-04T12:22:05.494Z,34.60
2018-11-04T12:24:33.970Z,35.73
2018-11-04T12:27:02.435Z,35.30
2018-11-04T12:29:30.903Z,35.03
2018-11-04T12:31:59.342Z,34.23
2018-11-04T12:34:27.793Z,36.80
2018-11-04T12:36:57.470Z,36.07
2018-11-04T12:39:25.941Z,36.90
2018-11-04T12:41:54.401Z,33.30
2018-11-04T12:44:22.838Z,36.93
2018-11-04T12:46:51.300Z,36.17
2018-11-04T12:49:19.769Z,35.07
2018-11-04T12:51:48.197Z,35.50
2018-11-04T12:54:16.650Z,34.90
2018-11-04T12:56:45.120Z,34.87
2018-11-04T12:59:13.570Z,35.10
2018-11-04T13:01:42.031Z,35.40
2018-11-04T13:04:10.488Z,36.00
2018-11-04T13:06:38.956Z,35.60
2018-11-04T13:09:09.111Z,34.57
2018-11-04T13:11:38.200Z,35.90
2018-11-04T13:14:08.118Z,33.80
2018-11-04T13:16:36.570Z,36.13
2018-11-04T13:19:05.518Z,35.30
2018-11-04T13:21:35.063Z,36.47
2018-11-04T13:24:04.091Z,34.97
2018-11-04T13:26:32.780Z,34.83
2018-11-04T13:29:01.272Z,35.03
2018-11-04T13:31:29.804Z,34.73
2018-11-04T13:33:58.302Z,34.63
2018-11-04T13:36:26.748Z,36.97
2018-11-04T13:38:55.355Z,34.80
2018-11-04T13:41:23.858Z,34.87
2018-11-04T13:43:52.370Z,36.30
2018-11-04T13:46:20.847Z,34.53
2018-11-04T13:48:49.313Z,36.50
2018-11-04T13:51:17.784Z,35.80
2018-11-04T13:53:46.263Z,36.13
2018-11-04T13:56:14.722Z,37.60
2018-11-04T13:58:43.186Z,35.90
2018-11-04T14:01:11.649Z,36.37
2018-11-04T14:03:40.139Z,36.43
2018-11-04T14:06:08.582Z,35.50
2018-11-04T14:08:37.082Z,35.93
2018-11-04T14:11:05.888Z,37.60
2018-11-04T14:13:34.467Z,34.97
2018-11-04T14:16:03.019Z,35.73
2018-11-04T14:18:31.453Z,36.07
2018-11-04T14:20:59.978Z,35.90
2018-11-04T14:23:28.417Z,37.10
2018-11-04T14:25:56.932Z,37.60
2018-11-04T14:28:25.790Z,37.40
2018-11-04T14:30:54.354Z,38.77
2018-11-04T14:33:22.969Z,36.97
2018-11-04T14:35:51.443Z,37.73
2018-11-04T14:38:19.919Z,37.07
2018-11-04T14:40:48.396Z,37.20
2018-11-04T14:43:16.873Z,39.73
2018-11-04T14:45:45.395Z,37.27
2018-11-04T14:48:13.958Z,38.60
2018-11-04T14:50:42.462Z,38.03
2018-11-04T14:53:10.901Z,39.47
2018-11-04T14:55:39.386Z,40.23
2018-11-04T14:58:07.858Z,39.70
2018-11-04T15:00:37.202Z,40.27
2018-11-04T15:03:07.265Z,42.03
2018-11-04T15:05:35.726Z,40.60
2018-11-04T15:08:04.406Z,40.40
2018-11-04T15:10:32.866Z,41.87
2018-11-04T15:13:01.297Z,41.23
2018-11-04T15:15:29.759Z,43.57
2018-11-04T15:17:58.201Z,42.97
2018-11-04T15:20:26.642Z,43.27
2018-11-04T15:22:55.077Z,41.50
2018-11-04T15:25:23.517Z,43.27
2018-11-04T15:27:51.980Z,42.57
2018-11-04T15:30:20.422Z,42.53
2018-11-04T15:32:48.908Z,41.97
2018-11-04T15:35:18.060Z,43.83
2018-11-04T15:37:46.873Z,44.00
2018-11-04T15:40:16.220Z,43.93
2018-11-04T15:42:45.177Z,43.77
2018-11-04T15:45:14.558Z,44.40
2018-11-04T15:47:43.046Z,43.17
2018-11-04T15:50:13.538Z,42.97
2018-11-04T15:52:42.481Z,44.50
2018-11-04T15:55:10.992Z,44.80
2018-11-04T15:57:39.454Z,44.93
2018-11-04T16:00:09.774Z,41.80
2018-11-04T16:02:38.244Z,42.70
2018-11-04T16:05:07.858Z,39.97
2018-11-04T16:07:36.559Z,44.23
2018-11-04T16:10:06.267Z,46.60
2018-11-04T16:12:35.456Z,47.17
2018-11-04T16:15:06.992Z,46.77
2018-11-04T16:17:35.488Z,41.03
2018-11-04T16:20:04.595Z,48.47
2018-11-04T16:22:33.347Z,41.50
2018-11-04T16:25:02.242Z,40.77
2018-11-04T16:27:30.726Z,44.00
2018-11-04T16:29:59.318Z,43.03
2018-11-04T16:32:27.872Z,43.37
2018-11-04T16:34:56.439Z,46.97
2018-11-04T16:37:25.556Z,42.67
2018-11-04T16:39:54.681Z,43.07
2018-11-04T16:42:23.118Z,42.03
2018-11-04T16:44:51.829Z,42.50
2018-11-04T16:47:22.022Z,43.00
2018-11-04T16:49:50.463Z,39.90
2018-11-04T16:52:18.962Z,44.10
2018-11-04T16:54:47.518Z,43.33
2018-11-04T16:57:18.270Z,44.80
2018-11-04T16:59:46.969Z,41.40
2018-11-04T17:02:18.954Z,40.57
2018-11-04T17:04:48.827Z,46.47
2018-11-04T17:07:17.547Z,44.43
2018-11-04T17:09:46.078Z,45.60
2018-11-04T17:12:14.641Z,45.70
2018-11-04T17:14:43.095Z,41.07
2018-11-04T17:17:11.578Z,42.63
2018-11-04T17:19:40.243Z,46.47
2018-11-04T17:22:08.749Z,46.27
2018-11-04T17:24:37.220Z,46.50
2018-11-04T17:27:05.825Z,45.17
2018-11-04T17:29:34.322Z,43.13
2018-11-04T17:32:02.830Z,43.57
2018-11-04T17:34:31.317Z,45.20
2018-11-04T17:36:59.770Z,45.30
2018-11-04T17:39:28.234Z,43.27
2018-11-04T17:41:56.746Z,41.67
2018-11-04T17:44:25.262Z,38.80
2018-11-04T17:46:53.965Z,41.00
2018-11-04T17:49:22.413Z,42.67
2018-11-04T17:51:51.625Z,42.33
2018-11-04T17:54:20.055Z,42.40
2018-11-04T17:56:48.501Z,39.43
2018-11-04T17:59:16.918Z,40.27
2018-11-04T18:01:45.403Z,40.57
2018-11-04T18:04:14.753Z,38.93
2018-11-04T18:06:43.337Z,40.90
2018-11-04T18:09:11.894Z,39.57
2018-11-04T18:11:41.275Z,35.73
2018-11-04T18:14:09.773Z,34.90
2018-11-04T18:16:38.375Z,36.70
2018-11-04T18:19:09.179Z,36.33
2018-11-04T18:21:37.790Z,33.87
2018-11-04T18:24:06.614Z,35.70
2018-11-04T18:26:35.119Z,33.80
2018-11-04T18:29:12.137Z,32.77
2018-11-04T18:31:41.328Z,31.80
2018-11-04T18:34:10.143Z,32.80
2018-11-04T18:36:38.639Z,31.53
2018-11-04T18:39:08.928Z,32.87
2018-11-04T18:41:37.747Z,31.00
2018-11-04T18:44:06.922Z,31.93
2018-11-04T18:46:35.552Z,29.70
2018-11-04T18:49:04.042Z,30.00
2018-11-04T18:51:32.496Z,31.83
2018-11-04T18:54:00.958Z,29.43
2018-11-04T18:56:29.377Z,29.57
2018-11-04T18:58:57.872Z,31.90
2018-11-04T19:01:26.480Z,30.13
2018-11-04T19:03:54.946Z,30.83
2018-11-04T19:06:23.377Z,28.83
2018-11-04T19:08:51.814Z,29.77
2018-11-04T19:11:20.345Z,28.07
2018-11-04T19:13:48.977Z,29.60
2018-11-04T19:16:17.475Z,28.33
2018-11-04T19:18:45.936Z,30.13
2018-11-04T19:21:14.515Z,29.47
2018-11-04T19:23:42.988Z,29.13
2018-11-04T19:26:11.504Z,29.37
2018-11-04T19:28:42.853Z,27.73
2018-11-04T19:31:11.445Z,28.60
2018-11-04T19:33:40.127Z,27.53
2018-11-04T19:36:08.564Z,27.83
2018-11-04T19:38:37.037Z,26.10
2018-11-04T19:41:05.590Z,27.37
2018-11-04T19:43:34.163Z,25.33
2018-11-04T19:46:02.774Z,26.43
2018-11-04T19:48:32.624Z,25.37
2018-11-04T19:51:01.237Z,26.47
2018-11-04T19:53:30.081Z,24.60
2018-11-04T19:55:58.571Z,24.10
2018-11-04T19:58:27.018Z,24.37
2018-11-04T20:00:55.478Z,24.60
2018-11-04T20:03:23.960Z,24.83
2018-11-04T20:05:53.259Z,24.57
2018-11-04T20:08:21.897Z,24.87
2018-11-04T20:10:50.557Z,23.03
2018-11-04T20:13:24.447Z,23.43
2018-11-04T20:15:53.230Z,25.80
2018-11-04T20:18:27.190Z,23.47
2018-11-04T20:20:55.695Z,23.17
2018-11-04T20:23:24.141Z,24.10
2018-11-04T20:25:57.961Z,22.57
2018-11-04T20:28:26.595Z,20.70
2018-11-04T20:30:55.107Z,20.47
2018-11-04T20:33:23.656Z,20.37
2018-11-04T20:35:52.240Z,19.60
2018-11-04T20:38:25.081Z,20.13
2018-11-04T20:40:58.846Z,18.23
2018-11-04T20:43:27.315Z,17.73
2018-11-04T20:45:55.864Z,18.83
2018-11-04T20:50:35.661Z,18.23
2018-11-04T20:53:04.736Z,17.87
2018-11-04T20:55:38.394Z,17.90
2018-11-04T20:58:07.005Z,18.73
2018-11-04T21:00:35.470Z,18.77
2018-11-04T21:03:03.974Z,18.83
2018-11-04T21:05:32.457Z,18.60
2018-11-04T21:08:01.018Z,17.43
2018-11-04T21:10:29.486Z,18.40
2018-11-04T21:12:57.936Z,18.53
2018-11-04T21:15:26.400Z,19.37
2018-11-04T21:17:55.378Z,20.03
2018-11-04T21:20:23.849Z,17.27
2018-11-04T21:22:52.493Z,17.63
2018-11-04T21:25:21.052Z,18.03
2018-11-04T21:27:49.678Z,18.53
2018-11-04T21:30:18.249Z,18.13
2018-11-04T21:32:46.713Z,18.83
2018-11-04T21:35:15.158Z,18.03
2018-11-04T21:37:43.662Z,20.07
2018-11-04T21:40:12.254Z,19.57
2018-11-04T21:42:40.861Z,18.27
2018-11-04T21:45:11.841Z,17.80
2018-11-04T21:47:40.334Z,19.03
2018-11-04T21:50:10.294Z,19.07
2018-11-04T21:52:38.855Z,19.60
2018-11-04T21:55:09.073Z,18.43
2018-11-04T21:57:37.705Z,20.33
2018-11-04T22:00:08.878Z,19.63
2018-11-04T22:02:37.618Z,19.37
2018-11-04T22:05:07.261Z,18.47
2018-11-04T22:07:35.701Z,18.53
2018-11-04T22:10:04.893Z,19.87
2018-11-04T22:12:33.337Z,19.23
2018-11-04T22:15:01.798Z,19.80
2018-11-04T22:17:30.410Z,21.63
2018-11-04T22:19:58.865Z,20.33
2018-11-04T22:22:27.307Z,22.07
2018-11-04T22:24:55.778Z,21.80
2018-11-04T22:27:24.201Z,21.70
2018-11-04T22:29:52.642Z,23.33
2018-11-04T22:32:21.064Z,23.77
2018-11-04T22:34:49.481Z,24.73
2018-11-04T22:37:18.050Z,23.07
2018-11-04T22:39:46.503Z,23.93
2018-11-04T22:42:14.986Z,24.97
2018-11-04T22:44:43.583Z,24.27
2018-11-04T22:47:12.040Z,24.63
2018-11-04T22:49:40.479Z,23.40
2018-11-04T22:52:08.914Z,24.13
2018-11-04T22:54:37.349Z,24.10
2018-11-04T22:57:06.127Z,23.50
2018-11-04T22:59:34.590Z,24.73
2018-11-04T23:02:03.023Z,23.17
2018-11-04T23:04:36.805Z,25.80
2018-11-04T23:07:05.321Z,24.93
2018-11-04T23:09:33.882Z,26.67
2018-11-04T23:12:02.322Z,24.67
2018-11-04T23:14:30.854Z,23.90
2018-11-04T23:16:59.286Z,24.83
2018-11-04T23:19:27.772Z,24.40
2018-11-04T23:21:56.242Z,25.00
2018-11-04T23:24:24.685Z,26.50
2018-11-04T23:26:53.133Z,25.37
2018-11-04T23:29:21.811Z,25.60
2018-11-04T23:31:50.262Z,24.60
2018-11-04T23:34:18.702Z,24.90
2018-11-04T23:36:47.122Z,22.97
2018-11-04T23:39:15.638Z,24.40
2018-11-04T23:41:44.070Z,24.17
2018-11-04T23:44:12.605Z,24.40
2018-11-04T23:46:41.042Z,24.97
2018-11-04T23:49:09.481Z,23.07
2018-11-04T23:51:37.905Z,25.47
2018-11-04T23:54:06.387Z,23.97
2018-11-04T23:56:35.434Z,23.83
2018-11-04T23:59:04.222Z,24.33
